Time;durP1;ratioP1;P1;durP2;ratioP2;P2;SDS_P1;SDS_P2;PMS_P1;PMS_P2;Temp;Humidity;BMP_temperature;BMP_pressure;BME280_temperature;BME280_humidity;BME280_pressure;Samples;Min_cycle;Max_cycle;Signal;HPM_P1;HPM_P2
2021/03/06 00:01:06;;;;;;;6.23;3.40;;;2.00;99.90;;;;;;4961662;28;20716;-69
2021/03/06 00:03:52;;;;;;;6.53;3.93;;;2.00;99.90;;;;;;4963172;28;20618;-70
2021/03/06 00:06:20;;;;;;;8.40;3.70;;;2.00;99.90;;;;;;4965339;28;20633;-68
2021/03/06 00:08:50;;;;;;;4.30;3.77;;;2.00;99.90;;;;;;4963603;28;20633;-70
2021/03/06 00:11:30;;;;;;;4.83;3.20;;;1.90;99.90;;;;;;4965583;28;20760;-69
2021/03/06 00:13:58;;;;;;;8.03;3.80;;;1.90;99.90;;;;;;4963822;28;20637;-70
2021/03/06 00:16:27;;;;;;;5.80;3.40;;;1.90;99.90;;;;;;4965654;28;20619;-69
2021/03/06 00:19:00;;;;;;;6.57;3.97;;;1.90;99.90;;;;;;4969074;28;20617;-69
2021/03/06 00:21:40;;;;;;;5.77;3.60;;;2.00;99.90;;;;;;4963377;28;20690;-72
2021/03/06 00:24:09;;;;;;;7.93;4.70;;;1.90;99.90;;;;;;4960108;28;21075;-71
2021/03/06 00:26:43;;;;;;;8.77;3.73;;;1.90;99.90;;;;;;4965600;28;20617;-70
2021/03/06 00:29:08;;;;;;;5.60;3.40;;;1.90;99.90;;;;;;4967098;28;20629;-69
2021/03/06 00:31:41;;;;;;;5.00;3.70;;;1.90;99.90;;;;;;4966866;28;20646;-70
2021/03/06 00:34:18;;;;;;;5.97;3.53;;;1.90;99.90;;;;;;4962811;28;20333;-69
2021/03/06 00:36:43;;;;;;;6.00;4.20;;;1.90;99.90;;;;;;4963256;28;20609;-70
2021/03/06 00:39:11;;;;;;;6.07;3.87;;;1.90;99.90;;;;;;4948204;28;20685;-71
2021/03/06 00:41:56;;;;;;;6.10;3.87;;;1.80;99.90;;;;;;4963246;28;20214;-71
2021/03/06 00:44:28;;;;;;;7.77;3.40;;;1.80;99.90;;;;;;4960900;28;20724;-68
2021/03/06 00:47:11;;;;;;;4.50;3.80;;;1.80;99.90;;;;;;4964705;28;20789;-70
2021/03/06 00:49:40;;;;;;;5.53;3.37;;;1.80;99.90;;;;;;4963659;28;20781;-70
2021/03/06 00:52:11;;;;;;;4.70;3.10;;;1.80;99.90;;;;;;4963442;28;20642;-69
2021/03/06 00:54:39;;;;;;;3.40;3.10;;;1.70;99.90;;;;;;4964793;28;20615;-69
2021/03/06 00:57:09;;;;;;;6.50;3.23;;;1.70;99.90;;;;;;4946510;28;20628;-69
2021/03/06 00:59:37;;;;;;;4.00;3.70;;;1.70;99.90;;;;;;4967009;28;20607;-69
2021/03/06 01:02:08;;;;;;;9.40;3.90;;;1.70;99.90;;;;;;4964936;28;21030;-71
2021/03/06 01:04:43;;;;;;;4.40;3.17;;;1.60;99.90;;;;;;4959170;28;20785;-70
2021/03/06 01:07:14;;;;;;;7.60;3.70;;;1.60;99.90;;;;;;4958329;28;20621;-70
2021/03/06 01:09:42;;;;;;;4.90;4.30;;;1.60;99.90;;;;;;4964535;28;20629;-69
2021/03/06 01:12:12;;;;;;;4.17;3.77;;;1.50;99.90;;;;;;4963376;28;21047;-69
2021/03/06 01:14:38;;;;;;;3.83;3.20;;;1.50;99.90;;;;;;4961721;28;20610;-71
2021/03/06 01:17:03;;;;;;;6.50;3.20;;;1.50;99.90;;;;;;4960532;28;22833;-69
2021/03/06 01:19:49;;;;;;;9.40;4.00;;;1.50;99.90;;;;;;4948679;28;20839;-72
2021/03/06 01:22:25;;;;;;;5.80;3.20;;;1.40;99.90;;;;;;4959730;28;20215;-70
2021/03/06 01:24:55;;;;;;;6.90;3.90;;;1.40;99.90;;;;;;4959354;28;20692;-70
2021/03/06 01:27:28;;;;;;;5.07;3.43;;;1.40;99.90;;;;;;4960765;28;21291;-69
2021/03/06 01:30:02;;;;;;;8.10;3.77;;;1.40;99.90;;;;;;4962542;28;20674;-70
2021/03/06 01:32:37;;;;;;;5.03;3.10;;;1.30;99.90;;;;;;4963806;28;21110;-69
2021/03/06 01:35:32;;;;;;;3.37;3.07;;;1.30;99.90;;;;;;4946846;28;21239;-70
2021/03/06 01:38:14;;;;;;;6.13;3.67;;;1.30;99.90;;;;;;4947016;28;20623;-69
2021/03/06 01:40:52;;;;;;;3.80;3.00;;;1.30;99.90;;;;;;4965226;28;20717;-68
2021/03/06 01:43:35;;;;;;;5.27;3.30;;;1.30;99.90;;;;;;4946425;28;21223;-70
2021/03/06 01:46:01;;;;;;;4.70;3.50;;;1.30;99.90;;;;;;4965929;28;21144;-69
2021/03/06 01:48:29;;;;;;;7.73;3.43;;;1.30;99.90;;;;;;4964778;28;20606;-69
2021/03/06 01:50:57;;;;;;;5.20;3.30;;;1.30;99.90;;;;;;4962124;28;20217;-69
2021/03/06 01:53:32;;;;;;;7.47;3.53;;;1.30;99.90;;;;;;4962570;28;20638;-69
2021/03/06 01:56:02;;;;;;;5.30;3.20;;;1.30;99.90;;;;;;4963336;28;20708;-70
2021/03/06 01:58:31;;;;;;;5.60;3.70;;;1.20;99.90;;;;;;4968277;28;20858;-69
2021/03/06 02:01:09;;;;;;;4.90;3.23;;;1.20;99.90;;;;;;4970011;28;20761;-69
2021/03/06 02:03:35;;;;;;;4.30;3.67;;;1.20;99.90;;;;;;4968300;28;20700;-68
2021/03/06 02:06:05;;;;;;;6.60;3.23;;;1.20;99.90;;;;;;4966652;28;20720;-69
2021/03/06 02:08:46;;;;;;;5.90;3.40;;;1.20;99.90;;;;;;4967796;28;20178;-70
2021/03/06 02:11:27;;;;;;;5.97;3.17;;;1.20;99.90;;;;;;4974827;23;20688;-62
2021/03/06 02:14:28;;;;;;;;;;;;;;;;;;;;;
2021/03/06 02:17:11;;;;;;;5.47;2.90;;;1.20;99.90;;;;;;4982918;28;20613;-62
2021/03/06 02:20:15;;;;;;;;;;;;;;;;;;;;;
2021/03/06 02:22:55;;;;;;;3.97;3.00;;;1.30;99.90;;;;;;4960375;28;20629;-62
2021/03/06 02:25:53;;;;;;;7.20;3.30;;;1.30;99.90;;;;;;4967358;28;21215;-62
2021/03/06 02:28:36;;;;;;;3.50;3.10;;;1.30;99.90;;;;;;4966340;28;20625;-62
2021/03/06 02:31:22;;;;;;;4.03;3.10;;;1.20;99.90;;;;;;4968875;28;20650;-65
2021/03/06 02:34:15;;;;;;;7.80;4.53;;;1.20;99.90;;;;;;4949628;28;20642;-62
2021/03/06 02:36:48;;;;;;;3.60;2.50;;;1.20;99.90;;;;;;4957410;28;20634;-62
2021/03/06 02:39:16;;;;;;;4.00;2.30;;;1.20;99.90;;;;;;4966815;28;20622;-62
2021/03/06 02:42:03;;;;;;;4.13;2.80;;;1.20;99.90;;;;;;4951697;28;20708;-62
2021/03/06 02:44:41;;;;;;;;;;;;;;;;;;;;;
2021/03/06 02:47:10;;;;;;;5.53;2.33;;;1.20;99.90;;;;;;4967400;28;20602;-62
2021/03/06 02:49:35;;;;;;;3.50;2.80;;;1.20;99.90;;;;;;4964640;28;20617;-62
2021/03/06 02:52:18;;;;;;;;;;;;;;;;;;;;;
2021/03/06 02:54:54;;;;;;;6.13;2.53;;;1.20;99.90;;;;;;4920479;28;20195;-62
2021/03/06 02:57:52;;;;;;;5.43;2.60;;;1.20;99.90;;;;;;4969644;28;21279;-62
2021/03/06 03:00:29;;;;;;;3.50;2.23;;;1.20;99.90;;;;;;4962222;28;20649;-62
2021/03/06 03:03:18;;;;;;;2.57;2.30;;;1.30;99.90;;;;;;4963347;28;20712;-62
2021/03/06 03:05:59;;;;;;;7.90;2.70;;;1.30;99.90;;;;;;4965052;28;20646;-62
2021/03/06 03:08:36;;;;;;;4.80;2.33;;;1.30;99.90;;;;;;4950962;28;20699;-65
2021/03/06 03:11:13;;;;;;;4.20;2.27;;;1.40;99.90;;;;;;4951324;28;20665;-62
2021/03/06 03:14:05;;;;;;;7.27;2.90;;;1.40;99.90;;;;;;4947148;28;20684;-62
2021/03/06 03:17:03;;;;;;;5.03;2.03;;;1.40;99.90;;;;;;4959990;28;20636;-62
2021/03/06 03:19:37;;;;;;;3.93;2.40;;;1.60;99.90;;;;;;4966564;28;20633;-63
2021/03/06 03:22:15;;;;;;;4.13;2.60;;;1.60;99.90;;;;;;4967145;28;21051;-62
2021/03/06 03:24:58;;;;;;;;;;;;;;;;;;;;;
2021/03/06 03:27:54;;;;;;;4.80;2.20;;;1.70;99.90;;;;;;4968503;28;21203;-62
2021/03/06 03:30:30;;;;;;;3.90;2.23;;;1.70;99.90;;;;;;4969210;28;20617;-62
2021/03/06 03:33:02;;;;;;;6.20;2.43;;;1.80;99.90;;;;;;4965561;28;20638;-62
2021/03/06 03:35:37;;;;;;;3.37;2.13;;;1.90;99.90;;;;;;4967731;28;20630;-62
2021/03/06 03:38:16;;;;;;;4.97;2.13;;;1.90;99.90;;;;;;4967263;28;20614;-63
2021/03/06 03:40:52;;;;;;;3.80;2.10;;;1.90;99.90;;;;;;4945547;29;20673;-63
2021/03/06 03:43:21;;;;;;;6.50;2.80;;;1.90;99.90;;;;;;4965861;28;20633;-62
2021/03/06 03:45:55;;;;;;;5.00;2.20;;;2.00;99.90;;;;;;4940667;28;21288;-63
2021/03/06 03:48:29;;;;;;;4.70;2.20;;;2.00;99.90;;;;;;4966075;28;20595;-63
2021/03/06 03:50:55;;;;;;;3.57;2.23;;;2.10;99.90;;;;;;4970766;28;21010;-63
2021/03/06 03:53:28;;;;;;;7.70;1.87;;;2.10;99.90;;;;;;4958396;28;20630;-63
2021/03/06 03:56:08;;;;;;;2.60;2.10;;;2.10;99.90;;;;;;4960740;28;20263;-63
2021/03/06 03:58:47;;;;;;;4.47;1.90;;;2.20;99.90;;;;;;4960000;28;20617;-63
2021/03/06 04:01:15;;;;;;;3.10;1.80;;;2.30;99.90;;;;;;4949860;28;20705;-63
2021/03/06 04:03:43;;;;;;;7.90;2.10;;;2.30;99.90;;;;;;4970039;28;21004;-63
2021/03/06 04:06:19;;;;;;;4.17;1.77;;;2.40;99.90;;;;;;4969033;28;21046;-62
2021/03/06 04:08:54;;;;;;;6.67;1.70;;;2.40;99.90;;;;;;4949529;28;21251;-62
2021/03/06 04:11:24;;;;;;;3.63;2.40;;;2.40;99.90;;;;;;4963681;28;21279;-62
2021/03/06 04:14:22;;;;;;;3.90;1.80;;;2.50;99.90;;;;;;4958838;28;20654;-63
2021/03/06 04:16:47;;;;;;;4.60;2.00;;;2.50;99.90;;;;;;4945920;28;20619;-63
2021/03/06 04:19:33;;;;;;;;;;;;;;;;;;;;;
2021/03/06 04:22:06;;;;;;;4.83;1.80;;;2.70;99.90;;;;;;4962067;28;20763;-62
2021/03/06 04:24:39;;;;;;;5.87;2.77;;;2.70;99.90;;;;;;4956588;28;20978;-63
2021/03/06 04:27:11;;;;;;;4.30;2.07;;;2.70;99.90;;;;;;4928693;28;21002;-63
2021/03/06 04:29:36;;;;;;;5.43;2.37;;;2.70;99.90;;;;;;4952384;28;20626;-63
2021/03/06 04:32:02;;;;;;;5.10;2.30;;;2.70;99.90;;;;;;4969419;28;20672;-63
2021/03/06 04:34:35;;;;;;;3.03;2.33;;;2.80;99.90;;;;;;4948756;28;20218;-63
2021/03/06 04:37:06;;;;;;;4.40;2.50;;;2.80;99.90;;;;;;4961402;28;20763;-62
2021/03/06 04:39:34;;;;;;;5.77;2.50;;;2.90;99.90;;;;;;4965308;28;20973;-63
2021/03/06 04:42:00;;;;;;;4.30;2.37;;;2.90;99.90;;;;;;4944322;28;20670;-63
2021/03/06 04:44:31;;;;;;;3.73;2.20;;;2.90;99.90;;;;;;4951445;28;20768;-63
2021/03/06 04:46:59;;;;;;;4.23;2.40;;;3.00;99.90;;;;;;4949654;28;20973;-63
2021/03/06 04:49:41;;;;;;;3.20;2.77;;;3.00;99.90;;;;;;4948671;28;20713;-63
2021/03/06 04:52:09;;;;;;;6.90;3.83;;;3.10;99.90;;;;;;4946335;28;20662;-63
2021/03/06 04:54:37;;;;;;;4.20;3.43;;;3.00;99.90;;;;;;4964639;28;20706;-63
2021/03/06 04:57:12;;;;;;;4.73;3.23;;;3.00;99.90;;;;;;4949774;28;20623;-63
2021/03/06 04:59:43;;;;;;;4.00;3.00;;;3.00;99.90;;;;;;4960214;28;20717;-63
2021/03/06 05:02:11;;;;;;;5.67;3.47;;;3.10;99.90;;;;;;4964809;28;20674;-63
2021/03/06 05:04:46;;;;;;;6.43;3.87;;;3.00;99.90;;;;;;4968180;28;20623;-63
2021/03/06 05:07:16;;;;;;;5.37;3.83;;;3.10;99.90;;;;;;4961152;28;20723;-63
2021/03/06 05:09:45;;;;;;;4.70;3.33;;;3.20;99.90;;;;;;4960067;28;20622;-63
2021/03/06 05:12:18;;;;;;;5.07;3.73;;;3.20;99.90;;;;;;4946408;28;20662;-63
2021/03/06 05:15:05;;;;;;;8.43;4.20;;;3.10;99.90;;;;;;4943496;28;21069;-63
2021/03/06 05:17:34;;;;;;;5.90;4.50;;;3.10;99.90;;;;;;4961122;28;20621;-63
2021/03/06 05:20:16;;;;;;;7.57;4.03;;;3.10;99.90;;;;;;4964513;28;21089;-63
2021/03/06 05:22:50;;;;;;;6.73;4.40;;;3.10;99.90;;;;;;4942473;28;20634;-63
2021/03/06 05:25:26;;;;;;;7.37;4.67;;;3.20;99.90;;;;;;4945172;28;20702;-63
2021/03/06 05:27:52;;;;;;;6.93;4.57;;;3.30;99.90;;;;;;4960983;28;21008;-63
2021/03/06 05:30:37;;;;;;;5.80;5.30;;;3.20;99.90;;;;;;4967672;28;20623;-63
2021/03/06 05:33:05;;;;;;;6.80;4.70;;;3.20;99.90;;;;;;4964622;28;20630;-63
2021/03/06 05:35:35;;;;;;;6.17;4.47;;;3.20;99.90;;;;;;4970360;28;20617;-62
2021/03/06 05:38:14;;;;;;;5.23;4.50;;;3.30;99.90;;;;;;4948676;28;20729;-63
2021/03/06 05:40:47;;;;;;;7.43;4.50;;;3.30;99.90;;;;;;4966648;28;20673;-63
2021/03/06 05:43:23;;;;;;;7.07;4.73;;;3.20;99.90;;;;;;4953407;28;20713;-63
2021/03/06 05:46:00;;;;;;;7.97;4.50;;;3.20;99.90;;;;;;4964373;28;20966;-63
2021/03/06 05:48:28;;;;;;;4.90;4.40;;;3.30;99.90;;;;;;4969721;28;20660;-63
2021/03/06 05:50:59;;;;;;;6.93;5.17;;;3.30;99.90;;;;;;4949992;28;20641;-63
2021/03/06 05:53:37;;;;;;;;;;;;;;;;;;;;;
2021/03/06 05:56:07;;;;;;;9.13;4.67;;;3.20;99.90;;;;;;4961640;28;20625;-63
2021/03/06 05:58:42;;;;;;;6.00;5.13;;;3.30;99.90;;;;;;4948133;28;20640;-63
2021/03/06 06:01:23;;;;;;;6.70;4.77;;;3.30;99.90;;;;;;4967393;28;20753;-63
2021/03/06 06:03:52;;;;;;;8.00;5.50;;;3.30;99.90;;;;;;4960178;28;20614;-63
2021/03/06 06:06:21;;;;;;;6.70;5.07;;;3.40;99.90;;;;;;4946057;28;21245;-63
2021/03/06 06:08:49;;;;;;;5.50;4.33;;;3.40;99.90;;;;;;4967016;28;20629;-63
2021/03/06 06:11:30;;;;;;;6.10;4.63;;;3.40;99.90;;;;;;4966678;28;20654;-63
2021/03/06 06:14:00;;;;;;;6.13;5.10;;;3.40;99.90;;;;;;4964340;28;20984;-63
2021/03/06 06:16:49;;;;;;;7.80;5.23;;;3.40;99.90;;;;;;4943431;28;20618;-63
2021/03/06 06:19:25;;;;;;;7.43;6.10;;;3.30;99.90;;;;;;4955124;28;21247;-63
2021/03/06 06:21:51;;;;;;;6.63;4.90;;;3.40;99.90;;;;;;4969193;28;20723;-63
2021/03/06 06:24:24;;;;;;;4.83;3.87;;;3.50;99.90;;;;;;4953083;28;21172;-63
2021/03/06 06:26:59;;;;;;;7.67;4.80;;;3.50;99.90;;;;;;4966165;28;20552;-63
2021/03/06 06:29:45;;;;;;;7.40;4.20;;;3.50;99.90;;;;;;4970563;28;20641;-63
2021/03/06 06:32:13;;;;;;;7.20;4.57;;;3.60;99.90;;;;;;4957498;28;20650;-63
2021/03/06 06:34:46;;;;;;;11.00;4.90;;;3.70;99.90;;;;;;4967211;28;20618;-63
2021/03/06 06:37:34;;;;;;;7.93;4.57;;;3.60;99.90;;;;;;4969194;28;20582;-63
2021/03/06 06:40:17;;;;;;;8.50;5.13;;;3.70;99.90;;;;;;4948857;28;20641;-63
2021/03/06 06:42:52;;;;;;;6.20;4.70;;;3.80;99.90;;;;;;4962984;28;20765;-63
2021/03/06 06:45:24;;;;;;;6.90;4.83;;;3.60;99.90;;;;;;4970162;28;20688;-63
2021/03/06 06:47:55;;;;;;;8.67;5.43;;;3.60;99.90;;;;;;4947808;28;20619;-63
2021/03/06 06:50:30;;;;;;;5.07;4.57;;;3.60;99.90;;;;;;4966339;28;20654;-63
2021/03/06 06:52:59;;;;;;;7.10;5.33;;;3.60;99.90;;;;;;4969282;28;20618;-63
2021/03/06 06:55:39;;;;;;;7.27;5.90;;;3.60;99.90;;;;;;4965683;28;20636;-63
2021/03/06 06:58:07;;;;;;;9.03;5.03;;;3.60;99.90;;;;;;4960327;28;20733;-63
2021/03/06 07:00:35;;;;;;;6.50;5.10;;;3.60;99.90;;;;;;4969326;28;20662;-63
2021/03/06 07:03:05;;;;;;;7.40;4.77;;;3.70;99.90;;;;;;4961284;28;21066;-64
2021/03/06 07:05:33;;;;;;;8.57;4.90;;;3.80;99.90;;;;;;4950552;28;20624;-63
2021/03/06 07:08:03;;;;;;;7.83;5.17;;;3.90;99.90;;;;;;4963524;28;20630;-63
2021/03/06 07:10:47;;;;;;;7.60;5.63;;;3.90;99.90;;;;;;4959403;28;20712;-63
2021/03/06 07:13:14;;;;;;;9.30;5.13;;;4.00;99.90;;;;;;4968576;28;20672;-63
2021/03/06 07:15:44;;;;;;;7.40;4.60;;;4.10;99.90;;;;;;4949853;28;20677;-62
2021/03/06 07:18:21;;;;;;;9.73;5.03;;;4.00;99.90;;;;;;4945715;28;20689;-63
2021/03/06 07:20:49;;;;;;;7.80;4.60;;;4.10;99.90;;;;;;4970337;28;20665;-63
2021/03/06 07:23:22;;;;;;;8.20;4.70;;;4.20;99.90;;;;;;4949535;28;20615;-63
2021/03/06 07:25:55;;;;;;;8.00;4.00;;;4.20;99.90;;;;;;4966802;28;20955;-64
2021/03/06 07:28:21;;;;;;;9.30;4.80;;;4.20;99.90;;;;;;4959969;28;21183;-63
2021/03/06 07:30:51;;;;;;;7.77;4.40;;;4.30;99.90;;;;;;4965034;28;21019;-63
2021/03/06 07:33:21;;;;;;;6.53;5.00;;;4.40;99.90;;;;;;4973101;28;20607;-63
2021/03/06 07:35:52;;;;;;;5.87;4.70;;;4.40;99.90;;;;;;4948325;28;20630;-63
2021/03/06 07:38:19;;;;;;;7.17;4.30;;;4.40;99.90;;;;;;4970881;28;20649;-63
2021/03/06 07:40:55;;;;;;;8.20;5.00;;;4.50;99.90;;;;;;4970556;28;20658;-63
2021/03/06 07:43:24;;;;;;;12.27;4.60;;;4.50;99.90;;;;;;4965443;28;20649;-63
2021/03/06 07:45:52;;;;;;;10.30;4.33;;;4.50;99.90;;;;;;4959893;28;20626;-63
2021/03/06 07:48:25;;;;;;;8.73;5.47;;;4.60;99.90;;;;;;4962012;28;20633;-63
2021/03/06 07:50:54;;;;;;;12.93;5.17;;;4.60;99.90;;;;;;4949677;28;21226;-63
2021/03/06 07:53:21;;;;;;;7.97;5.10;;;4.60;99.90;;;;;;4969502;28;20709;-63
2021/03/06 07:55:48;;;;;;;7.20;5.33;;;4.70;99.90;;;;;;4965772;28;20670;-63
2021/03/06 07:58:19;;;;;;;10.37;5.50;;;4.60;99.90;;;;;;4965043;28;20626;-62
2021/03/06 08:01:11;;;;;;;8.53;5.17;;;4.60;99.90;;;;;;4968449;28;21033;-63
2021/03/06 08:03:37;;;;;;;10.43;5.43;;;4.70;99.90;;;;;;4957093;28;20720;-63
2021/03/06 08:06:07;;;;;;;6.93;5.03;;;4.80;99.90;;;;;;4963278;28;20673;-63
2021/03/06 08:08:32;;;;;;;11.10;5.67;;;4.80;99.90;;;;;;4967303;28;20673;-63
2021/03/06 08:11:06;;;;;;;10.30;5.80;;;4.90;99.90;;;;;;4989045;23;21433;-70
2021/03/06 08:13:35;;;;;;;11.30;5.60;;;4.90;99.90;;;;;;4962019;28;20281;-71
2021/03/06 08:16:41;;;;;;;6.67;4.60;;;5.00;99.90;;;;;;4964990;28;20618;-72
2021/03/06 08:19:09;;;;;;;8.10;4.60;;;5.10;99.90;;;;;;4945169;28;20631;-69
2021/03/06 08:21:45;;;;;;;10.10;4.87;;;5.10;99.90;;;;;;4948773;28;20761;-70
2021/03/06 08:24:18;;;;;;;8.80;5.23;;;5.10;99.90;;;;;;4928301;28;20619;-70
2021/03/06 08:27:02;;;;;;;10.90;5.17;;;5.20;99.90;;;;;;4944800;28;20625;-70
2021/03/06 08:29:28;;;;;;;10.67;5.40;;;5.20;99.90;;;;;;4946920;28;20619;-69
2021/03/06 08:32:26;;;;;;;12.83;7.47;;;5.30;99.90;;;;;;4945930;28;20649;-71
2021/03/06 08:35:15;;;;;;;10.60;6.93;;;5.30;99.90;;;;;;4940739;28;20551;-71
2021/03/06 08:37:41;;;;;;;11.13;7.90;;;5.30;99.90;;;;;;4944338;28;20613;-69
2021/03/06 08:40:11;;;;;;;13.90;7.70;;;5.40;99.90;;;;;;4946857;28;20627;-71
2021/03/06 08:42:51;;;;;;;11.50;7.30;;;5.40;99.90;;;;;;4943586;28;20717;-68
2021/03/06 08:45:48;;;;;;;11.47;7.13;;;5.50;99.90;;;;;;4940687;28;20607;-69
2021/03/06 08:48:15;;;;;;;11.00;6.97;;;5.50;99.90;;;;;;4934781;28;20889;-68
2021/03/06 08:50:43;;;;;;;9.23;6.07;;;5.50;99.90;;;;;;4927647;28;20631;-68
2021/03/06 08:53:15;;;;;;;8.33;5.37;;;5.50;99.90;;;;;;4940008;28;20619;-71
2021/03/06 08:55:45;;;;;;;11.67;6.00;;;5.60;99.90;;;;;;4938647;28;21256;-67
2021/03/06 08:58:21;;;;;;;11.20;6.10;;;5.70;99.90;;;;;;4940271;28;20654;-69
2021/03/06 09:00:56;;;;;;;10.43;5.73;;;5.90;99.90;;;;;;4943060;28;20626;-71
2021/03/06 09:03:27;;;;;;;8.77;5.20;;;5.90;99.90;;;;;;4943802;28;20702;-70
2021/03/06 09:05:55;;;;;;;9.20;4.80;;;6.00;99.90;;;;;;4943204;28;20607;-71
2021/03/06 09:08:22;;;;;;;9.87;5.20;;;6.10;99.90;;;;;;4942177;28;20610;-72
2021/03/06 09:10:52;;;;;;;6.70;4.87;;;6.10;99.90;;;;;;4945535;28;20607;-70
2021/03/06 09:13:24;;;;;;;6.80;4.07;;;6.00;99.90;;;;;;4944805;28;20630;-70
2021/03/06 09:15:56;;;;;;;7.17;3.80;;;6.10;99.90;;;;;;4948012;28;20673;-70
2021/03/06 09:18:26;;;;;;;7.37;4.40;;;6.20;99.90;;;;;;4944535;28;20635;-69
2021/03/06 09:21:01;;;;;;;5.53;4.37;;;6.30;99.90;;;;;;4934838;28;21049;-70
2021/03/06 09:23:41;;;;;;;7.33;4.80;;;6.40;99.90;;;;;;4946100;28;21061;-70
2021/03/06 09:26:09;;;;;;;5.93;5.00;;;6.30;99.90;;;;;;4940581;28;20649;-71
2021/03/06 09:28:35;;;;;;;7.37;4.97;;;6.30;99.90;;;;;;4942832;28;20705;-71
2021/03/06 09:31:09;;;;;;;7.93;4.10;;;6.30;99.90;;;;;;4943723;28;20693;-70
2021/03/06 09:33:37;;;;;;;5.20;2.90;;;6.30;99.90;;;;;;4944842;28;20591;-72
2021/03/06 09:36:10;;;;;;;3.40;2.87;;;6.30;99.90;;;;;;4926805;28;20627;-70
2021/03/06 09:38:47;;;;;;;4.53;2.53;;;6.50;99.90;;;;;;4942443;28;20623;-72
2021/03/06 09:41:15;;;;;;;3.23;2.70;;;6.40;99.90;;;;;;4943073;28;20716;-71
2021/03/06 09:43:42;;;;;;;3.80;2.23;;;6.40;99.90;;;;;;4942525;28;20615;-71
2021/03/06 09:46:17;;;;;;;3.90;2.83;;;6.40;99.90;;;;;;4944904;28;20603;-70
2021/03/06 09:48:57;;;;;;;4.67;3.43;;;6.30;99.90;;;;;;4925562;29;20635;-70
2021/03/06 09:51:44;;;;;;;4.50;3.83;;;6.40;99.90;;;;;;4928697;29;20681;-70
2021/03/06 09:54:12;;;;;;;7.03;4.20;;;6.60;99.90;;;;;;4938132;28;21013;-70
2021/03/06 09:56:52;;;;;;;6.37;4.20;;;6.60;99.90;;;;;;4939188;28;20691;-71
2021/03/06 09:59:19;;;;;;;6.17;4.23;;;6.60;99.90;;;;;;4938460;28;20661;-71
2021/03/06 10:01:45;;;;;;;5.70;4.30;;;6.60;99.90;;;;;;4944665;28;20673;-71
2021/03/06 10:04:13;;;;;;;6.70;5.00;;;6.60;99.90;;;;;;5527358;23;20685;-67
2021/03/06 10:06:40;;;;;;;5.93;4.77;;;6.60;99.90;;;;;;5523779;23;21153;-64
2021/03/06 10:09:08;;;;;;;6.77;4.97;;;6.60;99.90;;;;;;4965193;28;20602;-64
2021/03/06 10:11:39;;;;;;;7.87;4.80;;;6.50;99.90;;;;;;4973797;28;20645;-63
2021/03/06 10:14:06;;;;;;;5.83;4.23;;;6.50;99.90;;;;;;4954874;28;20649;-64
2021/03/06 10:17:06;;;;;;;4.57;3.83;;;6.50;99.90;;;;;;4956132;28;20618;-63
2021/03/06 10:19:53;;;;;;;5.77;4.23;;;6.60;99.90;;;;;;4903264;28;21138;-63
2021/03/06 10:22:21;;;;;;;6.73;4.13;;;6.60;99.90;;;;;;4947350;28;20642;-64
2021/03/06 10:24:49;;;;;;;5.40;3.90;;;6.70;99.90;;;;;;4946510;28;20641;-63
2021/03/06 10:27:15;;;;;;;4.93;3.33;;;6.70;99.90;;;;;;4966162;28;20629;-63
2021/03/06 10:29:40;;;;;;;5.03;3.00;;;6.70;99.90;;;;;;4940957;28;20954;-63
2021/03/06 10:32:07;;;;;;;4.33;2.63;;;6.70;99.90;;;;;;4963476;28;20187;-64
2021/03/06 10:34:34;;;;;;;4.27;3.27;;;6.90;99.90;;;;;;4965556;28;20203;-63
2021/03/06 10:37:29;;;;;;;5.70;3.30;;;6.90;99.90;;;;;;4970302;28;20645;-63
2021/03/06 10:39:58;;;;;;;5.17;4.43;;;7.00;99.90;;;;;;4946113;28;20981;-64
2021/03/06 10:42:48;;;;;;;3.70;3.30;;;7.00;99.90;;;;;;4965722;28;21197;-65
2021/03/06 10:45:30;;;;;;;6.33;4.47;;;7.00;99.90;;;;;;4938997;28;21038;-63
2021/03/06 10:48:02;;;;;;;4.97;3.87;;;6.90;99.90;;;;;;4941671;28;20650;-63
2021/03/06 10:50:31;;;;;;;3.97;3.57;;;6.90;99.90;;;;;;4947566;28;20641;-64
2021/03/06 10:53:17;;;;;;;4.70;3.93;;;7.00;99.90;;;;;;4948462;28;21042;-63
2021/03/06 10:55:44;;;;;;;6.10;3.10;;;6.90;99.90;;;;;;4945446;28;20650;-63
2021/03/06 10:58:12;;;;;;;5.13;2.97;;;6.90;99.90;;;;;;4939447;28;20646;-63
2021/03/06 11:00:40;;;;;;;4.67;3.00;;;6.80;99.90;;;;;;4960540;28;20658;-63
2021/03/06 11:03:07;;;;;;;5.70;2.67;;;6.70;99.90;;;;;;4956447;28;20618;-63
2021/03/06 11:05:33;;;;;;;4.80;3.10;;;6.80;99.90;;;;;;4958174;28;20649;-63
2021/03/06 11:08:17;;;;;;;4.10;2.70;;;6.80;99.90;;;;;;4963533;28;20645;-63
2021/03/06 11:10:45;;;;;;;3.00;2.30;;;6.80;99.90;;;;;;4963716;28;20597;-64
2021/03/06 11:13:11;;;;;;;3.60;2.90;;;6.70;99.90;;;;;;4968143;28;20626;-63
2021/03/06 11:15:51;;;;;;;6.10;2.80;;;6.80;99.90;;;;;;4983448;28;20625;-63
2021/03/06 11:18:21;;;;;;;5.40;2.70;;;6.80;99.90;;;;;;4979593;28;20233;-63
2021/03/06 11:20:48;;;;;;;3.60;2.63;;;6.80;99.90;;;;;;4972775;28;20661;-64
2021/03/06 11:23:14;;;;;;;3.70;2.70;;;6.80;99.90;;;;;;4960577;28;20625;-63
2021/03/06 11:25:40;;;;;;;4.30;2.80;;;6.80;99.90;;;;;;4941177;28;20708;-63
2021/03/06 11:28:07;;;;;;;4.23;3.40;;;6.70;99.90;;;;;;4958600;28;20701;-63
2021/03/06 11:30:35;;;;;;;5.87;3.63;;;6.70;99.90;;;;;;4957604;28;20625;-64
2021/03/06 11:33:05;;;;;;;3.27;2.83;;;6.80;99.90;;;;;;4933997;28;20618;-63
2021/03/06 11:35:32;;;;;;;3.10;2.80;;;6.80;99.90;;;;;;4958288;28;20621;-64
2021/03/06 11:37:58;;;;;;;6.53;3.10;;;6.90;99.90;;;;;;4936915;28;20646;-63
2021/03/06 11:40:29;;;;;;;6.37;3.53;;;6.90;99.90;;;;;;4954183;28;20643;-63
2021/03/06 11:42:56;;;;;;;6.67;4.20;;;7.00;99.90;;;;;;4959788;28;21003;-64
2021/03/06 11:45:22;;;;;;;8.73;5.40;;;7.00;99.90;;;;;;4961158;28;20615;-63
2021/03/06 11:47:48;;;;;;;6.27;5.30;;;7.00;99.90;;;;;;4944666;28;20750;-63
2021/03/06 11:50:17;;;;;;;7.43;5.40;;;6.90;99.90;;;;;;4941733;28;21009;-63
2021/03/06 11:52:43;;;;;;;7.17;5.40;;;7.00;99.90;;;;;;4959098;28;20721;-63
2021/03/06 11:55:11;;;;;;;8.07;6.40;;;7.00;99.90;;;;;;4956231;28;20757;-63
2021/03/06 11:57:37;;;;;;;7.37;4.97;;;7.10;99.90;;;;;;4956249;28;20662;-64
2021/03/06 12:00:08;;;;;;;5.83;5.23;;;7.10;99.90;;;;;;4959235;28;20618;-64
2021/03/06 12:02:34;;;;;;;5.80;5.20;;;7.20;99.90;;;;;;4961525;28;20654;-64
2021/03/06 12:05:00;;;;;;;5.50;4.90;;;7.20;99.90;;;;;;4950391;28;20630;-63
2021/03/06 12:07:25;;;;;;;6.87;4.30;;;7.30;99.90;;;;;;4957911;28;20384;-63
2021/03/06 12:09:51;;;;;;;5.10;4.10;;;7.40;99.90;;;;;;4965245;28;20194;-62
2021/03/06 12:12:17;;;;;;;6.43;4.43;;;7.60;99.90;;;;;;4961476;28;20187;-63
2021/03/06 12:14:42;;;;;;;5.83;4.03;;;7.50;99.90;;;;;;4967653;28;22986;-63
2021/03/06 12:17:08;;;;;;;6.30;4.77;;;7.60;99.90;;;;;;4960902;28;20217;-63
2021/03/06 12:19:34;;;;;;;4.90;3.00;;;7.50;99.90;;;;;;4955475;28;20184;-63
2021/03/06 12:21:59;;;;;;;3.07;2.50;;;7.40;99.90;;;;;;4948263;28;20578;-63
2021/03/06 12:24:25;;;;;;;4.13;2.50;;;7.50;99.90;;;;;;4940633;28;20548;-63
2021/03/06 12:26:54;;;;;;;3.90;2.93;;;7.30;99.90;;;;;;4962247;28;20215;-64
2021/03/06 12:29:20;;;;;;;5.50;3.20;;;7.40;99.90;;;;;;4959725;28;20653;-63
2021/03/06 12:31:46;;;;;;;4.33;2.87;;;7.30;99.90;;;;;;4941295;28;21002;-64
2021/03/06 12:34:12;;;;;;;5.70;3.40;;;7.40;99.90;;;;;;4941999;28;20633;-64
2021/03/06 12:36:37;;;;;;;7.30;2.87;;;7.50;99.90;;;;;;4950092;28;20646;-63
2021/03/06 12:39:05;;;;;;;3.40;2.77;;;7.50;99.90;;;;;;4953418;28;20234;-63
2021/03/06 12:41:30;;;;;;;4.60;3.10;;;7.50;99.90;;;;;;4940285;28;20295;-63
2021/03/06 12:43:56;;;;;;;3.10;2.57;;;7.70;99.90;;;;;;4944319;28;20756;-63
2021/03/06 12:46:24;;;;;;;5.13;2.30;;;7.70;99.90;;;;;;4944316;28;21308;-63
2021/03/06 12:48:50;;;;;;;3.80;1.90;;;7.70;99.90;;;;;;4943717;28;20227;-63
2021/03/06 12:51:18;;;;;;;5.20;1.80;;;7.80;99.90;;;;;;4944854;28;20738;-63
2021/03/06 12:53:44;;;;;;;5.43;2.10;;;7.90;99.90;;;;;;4964282;28;20981;-62
2021/03/06 12:56:10;;;;;;;3.73;1.57;;;7.80;99.90;;;;;;4958928;28;20615;-63
2021/03/06 12:58:36;;;;;;;3.33;1.80;;;7.90;99.90;;;;;;4959817;28;20720;-63
2021/03/06 13:01:01;;;;;;;4.70;2.00;;;7.90;99.90;;;;;;4958943;28;20643;-63
2021/03/06 13:03:27;;;;;;;3.50;1.93;;;7.80;99.90;;;;;;4936318;28;20286;-63
2021/03/06 13:05:52;;;;;;;4.23;1.83;;;7.80;99.90;;;;;;4959197;28;20187;-63
2021/03/06 13:08:18;;;;;;;2.30;1.60;;;7.80;99.90;;;;;;4962425;28;20230;-63
2021/03/06 13:10:44;;;;;;;3.10;1.50;;;7.80;99.90;;;;;;4958591;28;20197;-63
2021/03/06 13:13:09;;;;;;;2.60;2.07;;;7.80;99.90;;;;;;4943136;28;20207;-63
2021/03/06 13:15:35;;;;;;;2.30;1.50;;;7.90;99.90;;;;;;4963284;28;20196;-63
2021/03/06 13:18:00;;;;;;;1.60;1.47;;;7.80;99.90;;;;;;4966258;28;20226;-63
2021/03/06 13:20:26;;;;;;;6.10;1.63;;;7.80;99.90;;;;;;4956319;28;20578;-63
2021/03/06 13:22:52;;;;;;;3.87;1.83;;;7.80;99.90;;;;;;4958165;28;20245;-63
2021/03/06 13:25:18;;;;;;;2.33;1.53;;;7.90;99.90;;;;;;4960021;28;21065;-63
2021/03/06 13:27:43;;;;;;;2.93;1.50;;;8.00;99.90;;;;;;4941657;28;20511;-63
2021/03/06 13:30:11;;;;;;;1.90;1.10;;;8.30;99.90;;;;;;4956590;28;20634;-63
2021/03/06 13:32:37;;;;;;;2.67;1.40;;;9.00;99.90;;;;;;4954868;28;20682;-64
2021/03/06 13:35:08;;;;;;;2.80;1.30;;;10.30;99.90;;;;;;4960042;28;20703;-63